sensor_id;sensor_type;location;lat;lon;timestamp;temperature;humidity
35043;DHT22;21230;51.170;17.024;2023-05-28T00:01:55;10.40;94.90
35043;DHT22;21230;51.170;17.024;2023-05-28T00:04:20;10.30;94.50
35043;DHT22;21230;51.170;17.024;2023-05-28T00:06:47;10.20;94.40
35043;DHT22;21230;51.170;17.024;2023-05-28T00:09:15;10.20;94.60
35043;DHT22;21230;51.170;17.024;2023-05-28T00:11:41;10.20;94.70
35043;DHT22;21230;51.170;17.024;2023-05-28T00:14:07;10.10;95.30
35043;DHT22;21230;51.170;17.024;2023-05-28T00:16:33;10.10;97.00
35043;DHT22;21230;51.170;17.024;2023-05-28T00:19:01;10.10;97.50
35043;DHT22;21230;51.170;17.024;2023-05-28T00:21:27;10.00;98.00
35043;DHT22;21230;51.170;17.024;2023-05-28T00:23:52;9.90;99.90
35043;DHT22;21230;51.170;17.024;2023-05-28T00:26:18;9.80;99.90
35043;DHT22;21230;51.170;17.024;2023-05-28T00:28:44;9.70;99.90
35043;DHT22;21230;51.170;17.024;2023-05-28T00:31:09;9.70;99.90
35043;DHT22;21230;51.170;17.024;2023-05-28T00:33:36;9.60;99.90
35043;DHT22;21230;51.170;17.024;2023-05-28T00:36:01;9.60;99.90
35043;DHT22;21230;51.170;17.024;2023-05-28T00:38:27;9.60;99.90
35043;DHT22;21230;51.170;17.024;2023-05-28T00:40:53;9.60;99.90
35043;DHT22;21230;51.170;17.024;2023-05-28T00:43:20;9.60;99.90
35043;DHT22;21230;51.170;17.024;2023-05-28T00:45:47;9.50;99.90
35043;DHT22;21230;51.170;17.024;2023-05-28T00:48:14;9.50;99.90
35043;DHT22;21230;51.170;17.024;2023-05-28T00:50:40;9.40;99.90
35043;DHT22;21230;51.170;17.024;2023-05-28T00:53:07;9.40;99.90
35043;DHT22;21230;51.170;17.024;2023-05-28T00:55:33;9.40;99.90
35043;DHT22;21230;51.170;17.024;2023-05-28T00:57:59;9.30;99.90
35043;DHT22;21230;51.170;17.024;2023-05-28T01:00:33;9.30;99.90
35043;DHT22;21230;51.170;17.024;2023-05-28T01:03:00;9.20;99.90
35043;DHT22;21230;51.170;17.024;2023-05-28T01:05:26;9.10;99.90
35043;DHT22;21230;51.170;17.024;2023-05-28T01:07:52;9.00;99.90
35043;DHT22;21230;51.170;17.024;2023-05-28T01:10:18;9.00;99.90
35043;DHT22;21230;51.170;17.024;2023-05-28T01:12:43;8.90;99.90
35043;DHT22;21230;51.170;17.024;2023-05-28T01:15:09;8.90;99.90
35043;DHT22;21230;51.170;17.024;2023-05-28T01:17:35;8.90;99.90
35043;DHT22;21230;51.170;17.024;2023-05-28T01:20:03;8.90;99.90
35043;DHT22;21230;51.170;17.024;2023-05-28T01:22:37;8.90;99.90
35043;DHT22;21230;51.170;17.024;2023-05-28T01:25:04;8.90;99.90
35043;DHT22;21230;51.170;17.024;2023-05-28T01:27:43;8.90;99.90
35043;DHT22;21230;51.170;17.024;2023-05-28T01:30:09;8.80;99.90
35043;DHT22;21230;51.170;17.024;2023-05-28T01:32:35;8.80;99.90
35043;DHT22;21230;51.170;17.024;2023-05-28T01:35:02;8.70;99.90
35043;DHT22;21230;51.170;17.024;2023-05-28T01:37:28;8.70;99.90
35043;DHT22;21230;51.170;17.024;2023-05-28T01:39:55;8.60;99.90
35043;DHT22;21230;51.170;17.024;2023-05-28T01:42:22;8.60;99.90
35043;DHT22;21230;51.170;17.024;2023-05-28T01:44:48;8.50;99.90
35043;DHT22;21230;51.170;17.024;2023-05-28T01:47:15;8.50;99.90
35043;DHT22;21230;51.170;17.024;2023-05-28T01:49:41;8.50;99.90
35043;DHT22;21230;51.170;17.024;2023-05-28T01:52:06;8.40;99.90
35043;DHT22;21230;51.170;17.024;2023-05-28T01:54:33;8.40;99.90
35043;DHT22;21230;51.170;17.024;2023-05-28T01:56:58;8.40;99.90
35043;DHT22;21230;51.170;17.024;2023-05-28T01:59:24;8.30;99.90
35043;DHT22;21230;51.170;17.024;2023-05-28T02:01:51;8.20;99.90
35043;DHT22;21230;51.170;17.024;2023-05-28T02:04:17;8.20;99.90
35043;DHT22;21230;51.170;17.024;2023-05-28T02:06:45;8.20;99.90
35043;DHT22;21230;51.170;17.024;2023-05-28T02:09:11;8.20;99.90
35043;DHT22;21230;51.170;17.024;2023-05-28T02:11:36;8.20;99.90
35043;DHT22;21230;51.170;17.024;2023-05-28T02:14:02;8.30;99.90
35043;DHT22;21230;51.170;17.024;2023-05-28T02:16:30;8.30;99.90
35043;DHT22;21230;51.170;17.024;2023-05-28T02:18:56;8.30;99.90
35043;DHT22;21230;51.170;17.024;2023-05-28T02:21:21;8.30;99.90
35043;DHT22;21230;51.170;17.024;2023-05-28T02:23:48;8.20;99.90
35043;DHT22;21230;51.170;17.024;2023-05-28T02:26:14;8.10;99.90
35043;DHT22;21230;51.170;17.024;2023-05-28T02:28:41;8.00;99.90
35043;DHT22;21230;51.170;17.024;2023-05-28T02:31:10;8.00;99.90
35043;DHT22;21230;51.170;17.024;2023-05-28T02:33:39;7.90;99.90
35043;DHT22;21230;51.170;17.024;2023-05-28T02:36:05;7.90;99.90
35043;DHT22;21230;51.170;17.024;2023-05-28T02:38:31;7.90;99.90
35043;DHT22;21230;51.170;17.024;2023-05-28T02:40:57;7.80;99.90
35043;DHT22;21230;51.170;17.024;2023-05-28T02:43:23;7.80;99.90
35043;DHT22;21230;51.170;17.024;2023-05-28T02:45:48;7.80;99.90
35043;DHT22;21230;51.170;17.024;2023-05-28T02:48:14;7.80;99.90
35043;DHT22;21230;51.170;17.024;2023-05-28T02:50:40;7.80;99.90
35043;DHT22;21230;51.170;17.024;2023-05-28T02:53:05;7.80;99.90
35043;DHT22;21230;51.170;17.024;2023-05-28T02:55:31;7.80;99.90
35043;DHT22;21230;51.170;17.024;2023-05-28T02:57:57;7.80;99.90
35043;DHT22;21230;51.170;17.024;2023-05-28T03:00:22;7.80;99.90
35043;DHT22;21230;51.170;17.024;2023-05-28T03:02:48;7.80;99.90
35043;DHT22;21230;51.170;17.024;2023-05-28T03:05:14;7.80;99.90
35043;DHT22;21230;51.170;17.024;2023-05-28T03:07:40;7.80;99.90
35043;DHT22;21230;51.170;17.024;2023-05-28T03:10:05;7.90;99.90
35043;DHT22;21230;51.170;17.024;2023-05-28T03:12:32;7.90;99.90
35043;DHT22;21230;51.170;17.024;2023-05-28T03:14:57;7.90;99.90
35043;DHT22;21230;51.170;17.024;2023-05-28T03:17:23;8.00;99.90
35043;DHT22;21230;51.170;17.024;2023-05-28T03:19:49;8.00;99.90
35043;DHT22;21230;51.170;17.024;2023-05-28T03:22:14;8.00;99.90
35043;DHT22;21230;51.170;17.024;2023-05-28T03:24:40;8.00;99.90
35043;DHT22;21230;51.170;17.024;2023-05-28T03:27:06;8.10;99.90
35043;DHT22;21230;51.170;17.024;2023-05-28T03:29:31;8.20;99.90
35043;DHT22;21230;51.170;17.024;2023-05-28T03:31:57;8.20;99.90
35043;DHT22;21230;51.170;17.024;2023-05-28T03:34:23;8.30;99.90
35043;DHT22;21230;51.170;17.024;2023-05-28T03:36:49;8.40;99.90
35043;DHT22;21230;51.170;17.024;2023-05-28T03:39:15;8.40;99.90
35043;DHT22;21230;51.170;17.024;2023-05-28T03:41:41;8.50;99.90
35043;DHT22;21230;51.170;17.024;2023-05-28T03:44:07;8.50;99.90
35043;DHT22;21230;51.170;17.024;2023-05-28T03:46:32;8.60;99.90
35043;DHT22;21230;51.170;17.024;2023-05-28T03:48:58;8.70;99.90
35043;DHT22;21230;51.170;17.024;2023-05-28T03:51:24;8.70;99.90
35043;DHT22;21230;51.170;17.024;2023-05-28T03:53:50;8.80;99.90
35043;DHT22;21230;51.170;17.024;2023-05-28T03:56:16;8.90;99.90
35043;DHT22;21230;51.170;17.024;2023-05-28T03:58:41;8.90;99.90
35043;DHT22;21230;51.170;17.024;2023-05-28T04:01:07;9.00;99.90
35043;DHT22;21230;51.170;17.024;2023-05-28T04:03:33;9.00;99.90
35043;DHT22;21230;51.170;17.024;2023-05-28T04:05:59;9.20;99.90
35043;DHT22;21230;51.170;17.024;2023-05-28T04:08:24;9.30;99.90
35043;DHT22;21230;51.170;17.024;2023-05-28T04:10:51;9.40;99.90
35043;DHT22;21230;51.170;17.024;2023-05-28T04:13:17;9.50;99.90
35043;DHT22;21230;51.170;17.024;2023-05-28T04:15:43;9.60;99.90
35043;DHT22;21230;51.170;17.024;2023-05-28T04:18:08;9.70;99.90
35043;DHT22;21230;51.170;17.024;2023-05-28T04:20:34;9.80;99.90
35043;DHT22;21230;51.170;17.024;2023-05-28T04:23:01;9.90;99.90
35043;DHT22;21230;51.170;17.024;2023-05-28T04:25:27;10.00;99.90
35043;DHT22;21230;51.170;17.024;2023-05-28T04:27:54;10.10;99.90
35043;DHT22;21230;51.170;17.024;2023-05-28T04:30:22;10.20;99.90
35043;DHT22;21230;51.170;17.024;2023-05-28T04:32:48;10.30;99.90
35043;DHT22;21230;51.170;17.024;2023-05-28T04:35:16;10.40;99.90
35043;DHT22;21230;51.170;17.024;2023-05-28T04:37:42;10.50;99.90
35043;DHT22;21230;51.170;17.024;2023-05-28T04:40:08;10.60;99.90
35043;DHT22;21230;51.170;17.024;2023-05-28T04:42:37;10.70;99.90
35043;DHT22;21230;51.170;17.024;2023-05-28T04:45:03;10.80;99.90
35043;DHT22;21230;51.170;17.024;2023-05-28T04:47:29;10.90;99.90
35043;DHT22;21230;51.170;17.024;2023-05-28T04:49:55;11.00;99.90
35043;DHT22;21230;51.170;17.024;2023-05-28T04:52:23;11.00;99.90
35043;DHT22;21230;51.170;17.024;2023-05-28T04:54:48;11.10;99.90
35043;DHT22;21230;51.170;17.024;2023-05-28T04:57:14;11.20;99.90
35043;DHT22;21230;51.170;17.024;2023-05-28T04:59:40;11.30;99.90
35043;DHT22;21230;51.170;17.024;2023-05-28T05:02:06;11.30;99.90
35043;DHT22;21230;51.170;17.024;2023-05-28T05:04:32;11.40;99.90
35043;DHT22;21230;51.170;17.024;2023-05-28T05:06:57;11.40;99.90
35043;DHT22;21230;51.170;17.024;2023-05-28T05:09:23;11.40;99.90
35043;DHT22;21230;51.170;17.024;2023-05-28T05:11:48;11.50;99.90
35043;DHT22;21230;51.170;17.024;2023-05-28T05:14:14;11.60;99.90
35043;DHT22;21230;51.170;17.024;2023-05-28T05:16:40;11.60;99.90
35043;DHT22;21230;51.170;17.024;2023-05-28T05:19:06;11.70;99.90
35043;DHT22;21230;51.170;17.024;2023-05-28T05:21:32;11.70;99.90
35043;DHT22;21230;51.170;17.024;2023-05-28T05:23:57;11.80;99.90
35043;DHT22;21230;51.170;17.024;2023-05-28T05:26:23;11.80;99.40
35043;DHT22;21230;51.170;17.024;2023-05-28T05:28:49;11.90;97.10
35043;DHT22;21230;51.170;17.024;2023-05-28T05:31:15;12.00;97.60
35043;DHT22;21230;51.170;17.024;2023-05-28T05:33:40;12.10;96.10
35043;DHT22;21230;51.170;17.024;2023-05-28T05:36:09;12.20;97.00
35043;DHT22;21230;51.170;17.024;2023-05-28T05:38:36;12.30;94.60
35043;DHT22;21230;51.170;17.024;2023-05-28T05:41:02;12.40;95.40
35043;DHT22;21230;51.170;17.024;2023-05-28T05:43:28;12.50;93.00
35043;DHT22;21230;51.170;17.024;2023-05-28T05:45:53;12.60;94.50
35043;DHT22;21230;51.170;17.024;2023-05-28T05:48:19;12.70;91.50
35043;DHT22;21230;51.170;17.024;2023-05-28T05:50:50;12.70;89.80
35043;DHT22;21230;51.170;17.024;2023-05-28T05:53:17;12.80;90.20
35043;DHT22;21230;51.170;17.024;2023-05-28T05:55:43;13.00;90.00
35043;DHT22;21230;51.170;17.024;2023-05-28T05:58:08;13.00;82.80
35043;DHT22;21230;51.170;17.024;2023-05-28T06:00:34;13.10;78.70
35043;DHT22;21230;51.170;17.024;2023-05-28T06:03:00;13.20;79.90
35043;DHT22;21230;51.170;17.024;2023-05-28T06:05:26;13.20;79.90
35043;DHT22;21230;51.170;17.024;2023-05-28T06:08:05;13.30;77.20
35043;DHT22;21230;51.170;17.024;2023-05-28T06:10:43;13.40;76.60
35043;DHT22;21230;51.170;17.024;2023-05-28T06:13:09;13.50;76.40
35043;DHT22;21230;51.170;17.024;2023-05-28T06:15:35;13.60;75.00
35043;DHT22;21230;51.170;17.024;2023-05-28T06:18:02;13.70;76.80
35043;DHT22;21230;51.170;17.024;2023-05-28T06:20:28;13.80;77.90
35043;DHT22;21230;51.170;17.024;2023-05-28T06:22:55;14.00;74.10
35043;DHT22;21230;51.170;17.024;2023-05-28T06:25:22;14.10;73.70
35043;DHT22;21230;51.170;17.024;2023-05-28T06:27:48;14.20;73.00
35043;DHT22;21230;51.170;17.024;2023-05-28T06:30:15;14.30;70.10
35043;DHT22;21230;51.170;17.024;2023-05-28T06:32:41;14.40;70.30
35043;DHT22;21230;51.170;17.024;2023-05-28T06:35:07;14.50;66.30
35043;DHT22;21230;51.170;17.024;2023-05-28T06:37:33;14.50;63.40
35043;DHT22;21230;51.170;17.024;2023-05-28T06:39:59;14.60;65.30
35043;DHT22;21230;51.170;17.024;2023-05-28T06:42:25;14.80;65.30
35043;DHT22;21230;51.170;17.024;2023-05-28T06:44:50;14.90;62.60
35043;DHT22;21230;51.170;17.024;2023-05-28T06:47:16;14.90;61.80
35043;DHT22;21230;51.170;17.024;2023-05-28T06:49:42;15.00;57.80
35043;DHT22;21230;51.170;17.024;2023-05-28T06:52:08;15.10;59.80
35043;DHT22;21230;51.170;17.024;2023-05-28T06:54:33;15.20;56.80
35043;DHT22;21230;51.170;17.024;2023-05-28T06:56:59;15.30;59.10
35043;DHT22;21230;51.170;17.024;2023-05-28T06:59:25;15.40;56.00
35043;DHT22;21230;51.170;17.024;2023-05-28T07:01:51;15.50;55.60
35043;DHT22;21230;51.170;17.024;2023-05-28T07:04:17;15.60;54.80
35043;DHT22;21230;51.170;17.024;2023-05-28T07:06:42;15.60;55.20
35043;DHT22;21230;51.170;17.024;2023-05-28T07:09:08;15.80;57.20
35043;DHT22;21230;51.170;17.024;2023-05-28T07:11:34;15.90;54.90
35043;DHT22;21230;51.170;17.024;2023-05-28T07:14:00;15.90;51.00
35043;DHT22;21230;51.170;17.024;2023-05-28T07:16:25;16.00;49.60
35043;DHT22;21230;51.170;17.024;2023-05-28T07:18:51;16.10;48.20
35043;DHT22;21230;51.170;17.024;2023-05-28T07:21:18;16.20;48.00
35043;DHT22;21230;51.170;17.024;2023-05-28T07:23:43;16.30;49.50
35043;DHT22;21230;51.170;17.024;2023-05-28T07:26:09;16.40;49.30
35043;DHT22;21230;51.170;17.024;2023-05-28T07:28:35;16.50;49.10
35043;DHT22;21230;51.170;17.024;2023-05-28T07:31:01;16.60;46.80
35043;DHT22;21230;51.170;17.024;2023-05-28T07:33:27;16.70;46.50
35043;DHT22;21230;51.170;17.024;2023-05-28T07:35:52;16.80;46.60
35043;DHT22;21230;51.170;17.024;2023-05-28T07:38:18;16.90;47.50
35043;DHT22;21230;51.170;17.024;2023-05-28T07:40:44;17.00;47.50
35043;DHT22;21230;51.170;17.024;2023-05-28T07:43:10;17.00;45.80
35043;DHT22;21230;51.170;17.024;2023-05-28T07:45:36;17.10;43.40
35043;DHT22;21230;51.170;17.024;2023-05-28T07:48:02;17.10;42.20
35043;DHT22;21230;51.170;17.024;2023-05-28T07:50:28;17.20;42.00
35043;DHT22;21230;51.170;17.024;2023-05-28T07:52:53;17.20;43.80
35043;DHT22;21230;51.170;17.024;2023-05-28T07:55:19;17.30;39.50
35043;DHT22;21230;51.170;17.024;2023-05-28T07:57:45;17.40;37.10
35043;DHT22;21230;51.170;17.024;2023-05-28T08:00:10;17.40;39.80
35043;DHT22;21230;51.170;17.024;2023-05-28T08:02:45;17.40;39.70
35043;DHT22;21230;51.170;17.024;2023-05-28T08:05:11;17.40;36.90
35043;DHT22;21230;51.170;17.024;2023-05-28T08:07:38;17.50;38.90
35043;DHT22;21230;51.170;17.024;2023-05-28T08:10:04;17.60;37.20
35043;DHT22;21230;51.170;17.024;2023-05-28T08:12:37;17.70;39.90
35043;DHT22;21230;51.170;17.024;2023-05-28T08:15:03;17.80;36.60
35043;DHT22;21230;51.170;17.024;2023-05-28T08:17:30;17.90;35.70
35043;DHT22;21230;51.170;17.024;2023-05-28T08:19:55;17.80;30.70
35043;DHT22;21230;51.170;17.024;2023-05-28T08:22:24;17.80;31.90
35043;DHT22;21230;51.170;17.024;2023-05-28T08:24:53;17.90;33.40
35043;DHT22;21230;51.170;17.024;2023-05-28T08:27:22;17.90;32.30
35043;DHT22;21230;51.170;17.024;2023-05-28T08:29:49;18.00;32.10
35043;DHT22;21230;51.170;17.024;2023-05-28T08:32:15;18.10;31.30
35043;DHT22;21230;51.170;17.024;2023-05-28T08:34:40;18.10;31.40
35043;DHT22;21230;51.170;17.024;2023-05-28T08:37:06;18.20;29.30
35043;DHT22;21230;51.170;17.024;2023-05-28T08:39:35;18.20;25.70
35043;DHT22;21230;51.170;17.024;2023-05-28T08:42:03;18.30;25.30
35043;DHT22;21230;51.170;17.024;2023-05-28T08:44:29;18.40;25.10
35043;DHT22;21230;51.170;17.024;2023-05-28T08:46:55;18.40;24.50
35043;DHT22;21230;51.170;17.024;2023-05-28T08:49:21;18.30;22.70
35043;DHT22;21230;51.170;17.024;2023-05-28T08:51:51;18.40;27.80
35043;DHT22;21230;51.170;17.024;2023-05-28T08:54:18;18.60;27.50
35043;DHT22;21230;51.170;17.024;2023-05-28T08:56:45;18.70;27.80
35043;DHT22;21230;51.170;17.024;2023-05-28T08:59:13;18.70;26.50
35043;DHT22;21230;51.170;17.024;2023-05-28T09:01:47;18.80;26.00
35043;DHT22;21230;51.170;17.024;2023-05-28T09:04:14;18.90;25.90
35043;DHT22;21230;51.170;17.024;2023-05-28T09:06:40;18.90;26.20
35043;DHT22;21230;51.170;17.024;2023-05-28T09:09:05;19.00;25.70
35043;DHT22;21230;51.170;17.024;2023-05-28T09:11:35;19.00;20.70
35043;DHT22;21230;51.170;17.024;2023-05-28T09:14:10;19.10;24.00
35043;DHT22;21230;51.170;17.024;2023-05-28T09:16:39;18.80;19.60
35043;DHT22;21230;51.170;17.024;2023-05-28T09:19:06;18.80;23.00
35043;DHT22;21230;51.170;17.024;2023-05-28T09:21:31;18.90;26.50
35043;DHT22;21230;51.170;17.024;2023-05-28T09:24:02;19.00;23.50
35043;DHT22;21230;51.170;17.024;2023-05-28T09:26:32;18.80;17.40
35043;DHT22;21230;51.170;17.024;2023-05-28T09:28:58;18.70;18.20
35043;DHT22;21230;51.170;17.024;2023-05-28T09:31:30;18.70;19.30
35043;DHT22;21230;51.170;17.024;2023-05-28T09:33:59;18.80;17.40
35043;DHT22;21230;51.170;17.024;2023-05-28T09:36:28;18.70;15.20
35043;DHT22;21230;51.170;17.024;2023-05-28T09:38:55;18.80;19.20
35043;DHT22;21230;51.170;17.024;2023-05-28T09:41:25;18.70;20.10
35043;DHT22;21230;51.170;17.024;2023-05-28T09:44:00;18.40;18.50
35043;DHT22;21230;51.170;17.024;2023-05-28T09:46:33;18.40;19.90
35043;DHT22;21230;51.170;17.024;2023-05-28T09:48:59;18.60;20.30
35043;DHT22;21230;51.170;17.024;2023-05-28T09:51:26;18.90;19.80
35043;DHT22;21230;51.170;17.024;2023-05-28T09:54:01;19.20;19.50
35043;DHT22;21230;51.170;17.024;2023-05-28T09:56:28;19.50;18.70
35043;DHT22;21230;51.170;17.024;2023-05-28T09:58:57;19.50;15.90
35043;DHT22;21230;51.170;17.024;2023-05-28T10:01:24;19.70;16.50
35043;DHT22;21230;51.170;17.024;2023-05-28T10:03:51;19.70;17.30
35043;DHT22;21230;51.170;17.024;2023-05-28T10:06:21;19.30;16.30
35043;DHT22;21230;51.170;17.024;2023-05-28T10:08:51;19.40;17.40
35043;DHT22;21230;51.170;17.024;2023-05-28T10:11:19;19.20;14.80
35043;DHT22;21230;51.170;17.024;2023-05-28T10:13:46;19.10;17.50
35043;DHT22;21230;51.170;17.024;2023-05-28T10:16:13;19.10;19.20
35043;DHT22;21230;51.170;17.024;2023-05-28T10:18:39;19.30;18.80
35043;DHT22;21230;51.170;17.024;2023-05-28T10:21:05;19.40;18.50
35043;DHT22;21230;51.170;17.024;2023-05-28T10:23:32;19.50;16.60
35043;DHT22;21230;51.170;17.024;2023-05-28T10:25:59;19.70;17.70
35043;DHT22;21230;51.170;17.024;2023-05-28T10:28:25;19.50;15.30
35043;DHT22;21230;51.170;17.024;2023-05-28T10:31:06;19.50;16.70
35043;DHT22;21230;51.170;17.024;2023-05-28T10:33:39;19.20;14.90
35043;DHT22;21230;51.170;17.024;2023-05-28T10:36:08;19.20;16.30
35043;DHT22;21230;51.170;17.024;2023-05-28T10:38:40;19.40;16.90
35043;DHT22;21230;51.170;17.024;2023-05-28T10:41:09;19.40;14.90
35043;DHT22;21230;51.170;17.024;2023-05-28T10:51:44;19.50;15.00
35043;DHT22;21230;51.170;17.024;2023-05-28T10:54:43;19.50;14.50
35043;DHT22;21230;51.170;17.024;2023-05-28T10:57:12;19.50;14.00
35043;DHT22;21230;51.170;17.024;2023-05-28T11:02:21;20.10;17.80
35043;DHT22;21230;51.170;17.024;2023-05-28T11:04:51;20.20;15.30
35043;DHT22;21230;51.170;17.024;2023-05-28T11:07:17;19.90;13.20
35043;DHT22;21230;51.170;17.024;2023-05-28T11:09:46;20.00;14.00
35043;DHT22;21230;51.170;17.024;2023-05-28T11:12:12;20.00;13.60
35043;DHT22;21230;51.170;17.024;2023-05-28T11:14:38;20.10;12.70
35043;DHT22;21230;51.170;17.024;2023-05-28T11:17:05;20.00;13.90
35043;DHT22;21230;51.170;17.024;2023-05-28T11:19:37;19.80;14.10
35043;DHT22;21230;51.170;17.024;2023-05-28T11:22:03;19.70;13.80
35043;DHT22;21230;51.170;17.024;2023-05-28T11:24:29;19.80;13.90
35043;DHT22;21230;51.170;17.024;2023-05-28T11:26:54;19.90;14.60
35043;DHT22;21230;51.170;17.024;2023-05-28T11:29:20;20.00;13.10
35043;DHT22;21230;51.170;17.024;2023-05-28T11:31:46;19.90;12.20
35043;DHT22;21230;51.170;17.024;2023-05-28T11:34:13;19.90;13.60
35043;DHT22;21230;51.170;17.024;2023-05-28T11:36:40;19.90;13.40
35043;DHT22;21230;51.170;17.024;2023-05-28T11:39:06;20.00;16.80
35043;DHT22;21230;51.170;17.024;2023-05-28T11:41:32;20.30;17.90
35043;DHT22;21230;51.170;17.024;2023-05-28T11:43:58;20.40;16.80
35043;DHT22;21230;51.170;17.024;2023-05-28T11:46:24;20.60;17.30
35043;DHT22;21230;51.170;17.024;2023-05-28T11:48:50;20.80;16.70
35043;DHT22;21230;51.170;17.024;2023-05-28T11:51:18;21.00;15.60
35043;DHT22;21230;51.170;17.024;2023-05-28T11:53:44;21.10;15.80
35043;DHT22;21230;51.170;17.024;2023-05-28T11:56:10;21.10;15.60
35043;DHT22;21230;51.170;17.024;2023-05-28T11:58:45;21.10;14.90
35043;DHT22;21230;51.170;17.024;2023-05-28T12:01:14;21.00;15.00
35043;DHT22;21230;51.170;17.024;2023-05-28T12:03:40;21.10;14.60
35043;DHT22;21230;51.170;17.024;2023-05-28T12:06:06;21.10;16.00
35043;DHT22;21230;51.170;17.024;2023-05-28T12:08:32;21.30;16.80
35043;DHT22;21230;51.170;17.024;2023-05-28T12:11:01;21.30;14.90
35043;DHT22;21230;51.170;17.024;2023-05-28T12:13:34;21.20;14.60
35043;DHT22;21230;51.170;17.024;2023-05-28T12:16:07;20.70;13.20
35043;DHT22;21230;51.170;17.024;2023-05-28T12:18:39;20.60;12.70
35043;DHT22;21230;51.170;17.024;2023-05-28T12:21:05;20.70;14.70
35043;DHT22;21230;51.170;17.024;2023-05-28T12:23:35;20.90;15.20
35043;DHT22;21230;51.170;17.024;2023-05-28T12:26:00;21.00;13.00
35043;DHT22;21230;51.170;17.024;2023-05-28T12:28:26;21.10;13.00
35043;DHT22;21230;51.170;17.024;2023-05-28T12:30:52;21.20;12.70
35043;DHT22;21230;51.170;17.024;2023-05-28T12:33:20;21.20;14.00
35043;DHT22;21230;51.170;17.024;2023-05-28T12:35:46;21.30;13.50
35043;DHT22;21230;51.170;17.024;2023-05-28T12:38:12;21.30;12.00
35043;DHT22;21230;51.170;17.024;2023-05-28T12:40:37;21.30;12.10
35043;DHT22;21230;51.170;17.024;2023-05-28T12:43:03;21.30;12.60
35043;DHT22;21230;51.170;17.024;2023-05-28T12:45:34;21.30;12.50
35043;DHT22;21230;51.170;17.024;2023-05-28T12:48:00;21.20;11.10
35043;DHT22;21230;51.170;17.024;2023-05-28T12:50:26;20.80;11.50
35043;DHT22;21230;51.170;17.024;2023-05-28T12:52:58;20.70;11.40
35043;DHT22;21230;51.170;17.024;2023-05-28T12:55:25;20.80;13.30
35043;DHT22;21230;51.170;17.024;2023-05-28T12:57:51;20.90;14.70
35043;DHT22;21230;51.170;17.024;2023-05-28T13:00:16;21.10;14.70
35043;DHT22;21230;51.170;17.024;2023-05-28T13:02:42;21.10;12.90
35043;DHT22;21230;51.170;17.024;2023-05-28T13:05:08;21.20;14.20
35043;DHT22;21230;51.170;17.024;2023-05-28T13:07:34;21.20;14.20
35043;DHT22;21230;51.170;17.024;2023-05-28T13:10:00;21.00;11.30
35043;DHT22;21230;51.170;17.024;2023-05-28T13:12:25;21.00;10.30
35043;DHT22;21230;51.170;17.024;2023-05-28T13:14:51;20.90;11.40
35043;DHT22;21230;51.170;17.024;2023-05-28T13:17:17;21.00;12.30
35043;DHT22;21230;51.170;17.024;2023-05-28T13:19:45;21.00;12.20
35043;DHT22;21230;51.170;17.024;2023-05-28T13:22:11;21.20;13.20
35043;DHT22;21230;51.170;17.024;2023-05-28T13:24:38;21.20;12.00
35043;DHT22;21230;51.170;17.024;2023-05-28T13:27:04;21.20;12.00
35043;DHT22;21230;51.170;17.024;2023-05-28T13:29:29;21.30;12.80
35043;DHT22;21230;51.170;17.024;2023-05-28T13:31:55;21.20;11.20
35043;DHT22;21230;51.170;17.024;2023-05-28T13:34:21;21.20;11.00
35043;DHT22;21230;51.170;17.024;2023-05-28T13:36:46;21.20;10.70
35043;DHT22;21230;51.170;17.024;2023-05-28T13:39:12;21.20;11.30
35043;DHT22;21230;51.170;17.024;2023-05-28T13:41:37;21.30;14.20
35043;DHT22;21230;51.170;17.024;2023-05-28T13:44:05;21.40;12.60
35043;DHT22;21230;51.170;17.024;2023-05-28T13:46:31;21.50;11.30
35043;DHT22;21230;51.170;17.024;2023-05-28T13:48:56;21.40;11.30
35043;DHT22;21230;51.170;17.024;2023-05-28T13:51:23;21.30;10.50
35043;DHT22;21230;51.170;17.024;2023-05-28T13:53:49;21.20;11.20
35043;DHT22;21230;51.170;17.024;2023-05-28T13:56:17;21.20;13.00
35043;DHT22;21230;51.170;17.024;2023-05-28T13:58:43;21.30;13.10
35043;DHT22;21230;51.170;17.024;2023-05-28T14:01:10;21.30;12.00
35043;DHT22;21230;51.170;17.024;2023-05-28T14:03:55;21.30;12.70
35043;DHT22;21230;51.170;17.024;2023-05-28T14:06:24;21.40;12.00
35043;DHT22;21230;51.170;17.024;2023-05-28T14:08:58;21.50;14.00
35043;DHT22;21230;51.170;17.024;2023-05-28T14:12:11;21.50;13.10
35043;DHT22;21230;51.170;17.024;2023-05-28T14:14:46;21.40;11.40
35043;DHT22;21230;51.170;17.024;2023-05-28T14:17:16;21.50;13.60
35043;DHT22;21230;51.170;17.024;2023-05-28T14:19:41;21.70;12.90
35043;DHT22;21230;51.170;17.024;2023-05-28T14:22:10;21.80;12.00
35043;DHT22;21230;51.170;17.024;2023-05-28T14:24:42;21.90;13.70
35043;DHT22;21230;51.170;17.024;2023-05-28T14:30:12;21.50;12.30
35043;DHT22;21230;51.170;17.024;2023-05-28T14:32:44;21.40;10.70
35043;DHT22;21230;51.170;17.024;2023-05-28T14:35:10;21.40;11.50
35043;DHT22;21230;51.170;17.024;2023-05-28T14:37:36;21.30;11.90
35043;DHT22;21230;51.170;17.024;2023-05-28T14:40:02;21.30;11.60
35043;DHT22;21230;51.170;17.024;2023-05-28T14:42:30;21.30;11.40
35043;DHT22;21230;51.170;17.024;2023-05-28T14:44:55;21.20;11.50
35043;DHT22;21230;51.170;17.024;2023-05-28T14:47:21;21.30;11.30
35043;DHT22;21230;51.170;17.024;2023-05-28T14:49:50;21.20;10.60
35043;DHT22;21230;51.170;17.024;2023-05-28T14:54:47;21.20;10.80
35043;DHT22;21230;51.170;17.024;2023-05-28T14:57:13;21.20;12.20
35043;DHT22;21230;51.170;17.024;2023-05-28T14:59:41;21.20;12.90
35043;DHT22;21230;51.170;17.024;2023-05-28T15:02:07;21.10;12.70
35043;DHT22;21230;51.170;17.024;2023-05-28T15:04:33;21.00;11.50
35043;DHT22;21230;51.170;17.024;2023-05-28T15:07:00;20.90;11.50
35043;DHT22;21230;51.170;17.024;2023-05-28T15:09:44;20.90;11.80
35043;DHT22;21230;51.170;17.024;2023-05-28T15:12:10;21.10;13.90
35043;DHT22;21230;51.170;17.024;2023-05-28T15:14:36;21.20;13.20
35043;DHT22;21230;51.170;17.024;2023-05-28T15:17:03;21.10;9.70
35043;DHT22;21230;51.170;17.024;2023-05-28T15:19:31;21.30;11.30
35043;DHT22;21230;51.170;17.024;2023-05-28T15:21:57;21.40;13.00
35043;DHT22;21230;51.170;17.024;2023-05-28T15:24:24;21.60;12.40
35043;DHT22;21230;51.170;17.024;2023-05-28T15:26:50;21.70;13.70
35043;DHT22;21230;51.170;17.024;2023-05-28T15:29:19;21.70;13.40
35043;DHT22;21230;51.170;17.024;2023-05-28T15:31:51;21.80;13.70
35043;DHT22;21230;51.170;17.024;2023-05-28T15:34:46;21.70;13.40
35043;DHT22;21230;51.170;17.024;2023-05-28T15:39:50;21.70;11.30